createdAt,value
2022-10-04T00:05:05.534Z,101866.19
2022-10-04T00:10:36.128Z,101867.00
2022-10-04T00:15:38.964Z,101860.19
2022-10-04T00:20:49.160Z,101860.38
2022-10-04T00:25:51.324Z,101870.38
2022-10-04T00:31:14.440Z,101850.75
2022-10-04T00:36:24.608Z,101855.88
2022-10-04T00:41:28.411Z,101837.28
2022-10-04T00:46:31.996Z,101842.59
2022-10-04T00:52:01.733Z,101839.28
2022-10-04T00:57:11.376Z,101816.66
2022-10-04T01:02:15.494Z,101811.69
2022-10-04T01:07:22.522Z,101814.53
2022-10-04T01:12:50.276Z,101822.69
2022-10-04T01:18:20.905Z,101826.72
2022-10-04T01:23:37.967Z,101826.22
2022-10-04T01:28:39.329Z,101813.44
2022-10-04T01:33:40.724Z,101815.28
2022-10-04T01:38:42.239Z,101810.13
2022-10-04T01:43:50.323Z,101810.94
2022-10-04T01:48:54.038Z,101803.50
2022-10-04T01:54:09.712Z,101802.66
2022-10-04T01:59:23.976Z,101798.50
2022-10-04T02:04:33.224Z,101793.56
2022-10-04T02:09:39.805Z,101791.91
2022-10-04T02:14:47.385Z,101794.06
2022-10-04T02:19:50.439Z,101785.25
2022-10-04T02:24:54.802Z,101784.78
2022-10-04T02:30:01.190Z,101779.63
2022-10-04T02:35:03.904Z,101770.00
2022-10-04T02:40:12.586Z,101767.53
2022-10-04T02:45:31.623Z,101763.38
2022-10-04T02:50:55.393Z,101757.56
2022-10-04T02:55:58.373Z,101746.47
2022-10-04T03:01:00.849Z,101748.47
2022-10-04T03:06:07.212Z,101739.47
2022-10-04T03:11:09.975Z,101741.31
2022-10-04T03:16:11.538Z,101730.84
2022-10-04T03:21:16.009Z,101717.56
2022-10-04T03:26:30.618Z,101712.91
2022-10-04T03:31:34.634Z,101717.91
2022-10-04T03:36:36.130Z,101713.09
2022-10-04T03:41:42.237Z,101716.13
2022-10-04T03:46:45.332Z,101717.28
2022-10-04T03:51:50.774Z,101715.97
2022-10-04T03:56:52.456Z,101710.66
2022-10-04T04:02:05.719Z,101709.16
2022-10-04T04:07:13.024Z,101699.72
2022-10-04T04:12:19.912Z,101685.41
2022-10-04T04:17:27.346Z,101681.47
2022-10-04T04:22:30.740Z,101698.44
2022-10-04T04:27:37.006Z,101707.59
2022-10-04T04:32:42.060Z,101697.00
2022-10-04T04:37:43.456Z,101699.16
2022-10-04T04:42:45.855Z,101702.16
2022-10-04T04:47:53.183Z,101703.31
2022-10-04T04:53:06.927Z,101704.69
2022-10-04T04:58:12.828Z,101690.38
2022-10-04T05:03:18.498Z,101680.28
2022-10-04T05:08:23.293Z,101682.44
2022-10-04T05:13:38.740Z,101673.47
2022-10-04T05:18:40.280Z,101678.59
2022-10-04T05:23:41.712Z,101673.81
2022-10-04T05:28:43.115Z,101671.84
2022-10-04T05:33:50.323Z,101666.53
2022-10-04T05:39:41.912Z,101663.38
2022-10-04T05:44:50.751Z,101671.19
2022-10-04T05:49:57.853Z,101663.38
2022-10-04T05:55:25.450Z,101658.56
2022-10-04T06:00:42.572Z,101665.03
2022-10-04T06:06:01.273Z,101658.34
2022-10-04T06:11:11.797Z,101655.22
2022-10-04T06:16:48.594Z,101670.94
2022-10-04T06:21:49.957Z,101679.69
2022-10-04T06:26:59.206Z,101668.50
2022-10-04T06:32:22.299Z,101664.41
2022-10-04T06:37:45.300Z,101658.84
2022-10-04T06:42:49.847Z,101657.81
2022-10-04T06:47:57.323Z,101658.91
2022-10-04T06:53:22.653Z,101659.00
2022-10-04T06:58:56.190Z,101655.78
2022-10-04T07:04:00.572Z,101654.66
2022-10-04T07:09:04.437Z,101663.78
2022-10-04T07:14:15.405Z,101664.47
2022-10-04T07:19:19.581Z,101663.88
2022-10-04T07:24:49.616Z,101657.00
2022-10-04T07:29:56.600Z,101665.25
2022-10-04T07:35:04.222Z,101678.78
2022-10-04T07:40:28.865Z,101679.66
2022-10-04T07:45:33.975Z,101685.34
2022-10-04T07:50:41.241Z,101684.50
2022-10-04T07:56:00.719Z,101684.63
2022-10-04T08:01:26.278Z,101689.56
2022-10-04T08:06:44.467Z,101689.31
2022-10-04T08:11:54.394Z,101690.06
2022-10-04T08:17:15.198Z,101683.19
2022-10-04T08:22:37.722Z,101687.00
2022-10-04T08:27:53.220Z,101690.78
2022-10-04T08:33:04.447Z,101684.78
2022-10-04T08:38:22.677Z,101675.09
2022-10-04T08:43:58.412Z,101676.31
2022-10-04T08:49:44.357Z,101680.44
2022-10-04T08:55:10.366Z,101671.97
2022-10-04T09:00:18.389Z,101674.50
2022-10-04T09:05:58.831Z,101664.56
2022-10-04T09:11:18.998Z,101681.44
2022-10-04T09:16:44.961Z,101673.22
2022-10-04T09:21:46.514Z,101672.19
2022-10-04T09:27:06.177Z,101658.00
2022-10-04T09:32:21.543Z,101660.84
2022-10-04T09:37:28.688Z,101661.34
2022-10-04T09:42:51.309Z,101657.19
2022-10-04T09:48:20.076Z,101655.22
2022-10-04T09:53:40.199Z,101646.78
2022-10-04T09:58:52.850Z,101646.31
2022-10-04T10:04:10.422Z,101648.38
2022-10-04T10:09:23.375Z,101637.97
2022-10-04T10:14:54.395Z,101646.06
2022-10-04T10:20:14.434Z,101640.41
2022-10-04T10:26:02.680Z,101631.69
2022-10-04T10:31:32.237Z,101619.78
2022-10-04T10:37:07.661Z,101616.63
2022-10-04T10:42:24.038Z,101615.13
2022-10-04T10:47:52.555Z,101615.13
2022-10-04T10:52:53.865Z,101621.63
2022-10-04T10:58:10.417Z,101615.00
2022-10-04T11:03:41.353Z,101614.94
2022-10-04T11:09:04.588Z,101608.34
2022-10-04T11:14:08.563Z,101594.34
2022-10-04T11:19:34.386Z,101590.56
2022-10-04T11:24:54.651Z,101596.69
2022-10-04T11:30:16.220Z,101582.56
2022-10-04T11:35:38.231Z,101558.19
2022-10-04T11:40:49.752Z,101552.72
2022-10-04T11:46:12.429Z,101559.72
2022-10-04T11:51:32.838Z,101552.34
2022-10-04T11:56:59.911Z,101560.16
2022-10-04T12:02:30.526Z,101544.31
2022-10-04T12:07:38.287Z,101543.41
2022-10-04T12:13:04.451Z,101536.28
2022-10-04T12:18:30.138Z,101551.00
2022-10-04T12:24:02.598Z,101560.06
2022-10-04T12:29:19.129Z,101553.50
2022-10-04T12:34:44.839Z,101533.19
2022-10-04T12:40:21.742Z,101538.44
2022-10-04T12:45:30.757Z,101512.28
2022-10-04T12:50:44.067Z,101499.53
2022-10-04T12:55:59.609Z,101503.13
2022-10-04T13:01:45.183Z,101495.06
2022-10-04T13:07:10.577Z,101499.34
2022-10-04T13:13:07.058Z,101475.47
2022-10-04T13:18:42.366Z,101477.56
2022-10-04T13:23:46.472Z,101473.91
2022-10-04T13:29:14.463Z,101476.22
2022-10-04T13:34:36.326Z,101478.06
2022-10-04T13:40:02.180Z,101464.56
2022-10-04T13:46:08.798Z,101457.75
2022-10-04T13:51:19.185Z,101446.59
2022-10-04T13:56:58.212Z,101438.16
2022-10-04T14:02:26.476Z,101445.16
2022-10-04T14:07:33.508Z,101424.41
2022-10-04T14:12:37.746Z,101416.13
2022-10-04T14:17:54.372Z,101410.31
2022-10-04T14:23:17.688Z,101393.94
2022-10-04T14:28:37.236Z,101377.16
2022-10-04T14:34:15.626Z,101374.41
2022-10-04T14:39:53.918Z,101403.38
2022-10-04T14:45:17.104Z,101398.66
2022-10-04T14:50:38.101Z,101378.66
2022-10-04T14:56:02.872Z,101379.38
2022-10-04T15:01:26.772Z,101369.19
2022-10-04T15:06:47.252Z,101360.78
2022-10-04T15:12:27.025Z,101354.63
2022-10-04T15:17:32.917Z,101357.59
2022-10-04T15:22:50.249Z,101361.19
2022-10-04T15:27:56.580Z,101346.13
2022-10-04T15:33:25.413Z,101353.22
2022-10-04T15:38:56.059Z,101352.41
2022-10-04T15:44:09.535Z,101348.28
2022-10-04T15:49:37.351Z,101361.19
2022-10-04T15:55:01.035Z,101354.84
2022-10-04T16:00:11.443Z,101356.34
2022-10-04T16:05:34.395Z,101355.03
2022-10-04T16:11:20.539Z,101365.16
2022-10-04T16:16:35.536Z,101366.41
2022-10-04T16:22:15.703Z,101362.06
2022-10-04T16:27:33.880Z,101359.59
2022-10-04T16:33:04.967Z,101361.84
2022-10-04T16:38:12.620Z,101358.75
2022-10-04T16:43:16.991Z,101369.44
2022-10-04T16:48:24.439Z,101364.69
2022-10-04T16:53:44.075Z,101358.88
2022-10-04T16:59:12.377Z,101360.84
2022-10-04T17:04:38.206Z,101352.22
2022-10-04T17:10:04.575Z,101352.75
2022-10-04T17:15:05.898Z,101362.47
2022-10-04T17:20:22.411Z,101363.88
2022-10-04T17:25:59.159Z,101365.06
2022-10-04T17:31:14.217Z,101362.94
2022-10-04T17:36:28.608Z,101367.09
2022-10-04T17:41:35.755Z,101385.91
2022-10-04T17:46:54.424Z,101385.59
2022-10-04T17:52:01.514Z,101391.59
2022-10-04T17:57:02.874Z,101387.66
2022-10-04T18:02:11.916Z,101378.94
2022-10-04T18:07:47.517Z,101383.66
2022-10-04T18:12:55.694Z,101384.56
2022-10-04T18:18:14.806Z,101388.81
2022-10-04T18:23:27.024Z,101397.53
2022-10-04T18:28:28.648Z,101411.94
2022-10-04T18:33:47.205Z,101409.75
2022-10-04T18:39:13.350Z,101411.31
2022-10-04T18:44:17.127Z,101418.03
2022-10-04T18:49:24.241Z,101417.88
2022-10-04T18:55:13.879Z,101424.16
2022-10-04T19:00:15.540Z,101424.88
2022-10-04T19:05:26.625Z,101438.16
2022-10-04T19:10:44.046Z,101456.38
2022-10-04T19:16:11.433Z,101456.84
2022-10-04T19:21:47.242Z,101451.13
2022-10-04T19:27:01.855Z,101454.50
2022-10-04T19:32:44.664Z,101446.28
2022-10-04T19:37:55.041Z,101435.63
2022-10-04T19:43:25.217Z,101422.41
2022-10-04T19:48:28.064Z,101432.22
2022-10-04T19:53:38.552Z,101439.91
2022-10-04T19:58:47.502Z,101432.72
2022-10-04T20:03:49.240Z,101433.16
2022-10-04T20:08:59.386Z,101426.56
2022-10-04T20:14:03.110Z,101434.44
2022-10-04T20:19:35.832Z,101434.44
2022-10-04T20:24:37.117Z,101439.41
2022-10-04T20:29:38.419Z,101434.72
2022-10-04T20:34:39.683Z,101440.31
2022-10-04T20:39:41.134Z,101437.47
2022-10-04T20:44:46.772Z,101453.72
2022-10-04T20:49:48.202Z,101450.25
2022-10-04T20:54:53.164Z,101443.25
2022-10-04T20:59:54.772Z,101446.97
2022-10-04T21:05:12.736Z,101445.91
2022-10-04T21:10:19.958Z,101440.97
2022-10-04T21:15:22.534Z,101441.13
2022-10-04T21:20:44.498Z,101433.94
2022-10-04T21:25:45.887Z,101433.50
2022-10-04T21:30:47.240Z,101429.59
2022-10-04T21:35:52.129Z,101442.69
2022-10-04T21:40:53.489Z,101446.81
2022-10-04T21:45:54.906Z,101440.00
2022-10-04T21:50:56.413Z,101448.00
2022-10-04T21:55:57.843Z,101438.34
2022-10-04T22:00:59.315Z,101435.25
2022-10-04T22:06:00.887Z,101440.81
2022-10-04T22:11:02.309Z,101436.91
2022-10-04T22:16:04.609Z,101445.09
2022-10-04T22:21:06.519Z,101440.56
2022-10-04T22:26:15.083Z,101435.59
2022-10-04T22:31:19.588Z,101437.88
2022-10-04T22:36:29.931Z,101432.91
2022-10-04T22:41:34.322Z,101426.94
2022-10-04T22:46:41.871Z,101417.69
2022-10-04T22:51:44.903Z,101428.34
2022-10-04T22:56:47.111Z,101418.22
2022-10-04T23:01:48.716Z,101420.31
2022-10-04T23:06:51.350Z,101427.03
2022-10-04T23:11:52.709Z,101431.56
2022-10-04T23:16:54.162Z,101426.19
2022-10-04T23:21:55.533Z,101416.09
2022-10-04T23:26:56.922Z,101416.72
2022-10-04T23:31:58.406Z,101417.91
2022-10-04T23:36:59.949Z,101415.84
2022-10-04T23:42:07.445Z,101417.25
2022-10-04T23:47:15.140Z,101411.06
2022-10-04T23:52:25.163Z,101411.69
2022-10-04T23:57:29.099Z,101409.19
